Huvudsida
METAR-TAF:

METAR-TAF

Flygplatser :

Berlevågs flygplats

Berlevågs, Norge

latitud: 70-52N, longitud: 029-02E, höjd: 1 m

Aktuellt väderrapport

Denna rapport gjordes för 15 minuter sedan, klockan 07:50 UTC
Vind 14 kt från syd
Temperatur 3°C
Fuktighet 87%
Tryck 985 hPa
Sikt 10 km eller mer
Få moln på en höjd av 1200 ft
Spridda moln på en höjd av 3000 ft
Brutna moln på en höjd av 6000 ft

METAR: ENBV 230750Z 19014KT 9999 FEW012 SCT030 BKN060 03/01 Q0985

Tid: 10:05 (08:05 UTC)

Väderprognos

Denna rapport gjordes för 3 timmar och 5 minuter sedan, klockan 05:00 UTC
Prognos gäller från 23 kl. 06 UTC till 23 kl. 15 UTC
Vind 12 kt från sydväst
Sikt 10 km eller mer
Brutna moln på en höjd av 1800 ft
lätta regnskurar, snö
Temporärt
från 23 kl. 06 UTC till 23 kl. 15 UTC
Sikt: 4000 m
på en höjd av 800 ft
lätta regnskurar, snö

TAF: ENBV 230500Z 2306/2315 22012KT 9999 -SHRASN BKN018 TEMPO 2306/2315 4000 -SHRASN VV008

Aktuella väderrapporter och prognoser från 4000 flygplatser (METAR- och TAF-rapporter).

De tillgängliga stationerna syns som gula och röda prickar på kartan.

För musen över prickarna för att se namnen på stationerna.

Klicka sedan för att få väderrapporter och prognoser.

För att ändra kartan: Klicka på de gröna knapparna med ett svart kors på för att zooma in; den gröna knappen med ett streck på för att zooma ut; eller på de gröna pilarna för angränsande kartor.


METAR-TAF: